Time;durP1;ratioP1;P1;durP2;ratioP2;P2;SDS_P1;SDS_P2;PMS_P1;PMS_P2;Temp;Humidity;BMP_temperature;BMP_pressure;BME280_temperature;BME280_humidity;BME280_pressure;Samples;Min_cycle;Max_cycle;Signal;HPM_P1;HPM_P2
2023/03/19 00:01:54;;;;;;;3.73;2.70;;;;;;;10.47;76.94;97788.66;5073313;28;20224;-73
2023/03/19 00:04:21;;;;;;;3.37;2.40;;;;;;;10.41;76.45;97792.22;5073499;28;20219;-73
2023/03/19 00:06:47;;;;;;;6.33;2.73;;;;;;;10.34;79.24;97794.13;5073339;28;20613;-73
2023/03/19 00:09:13;;;;;;;4.40;2.50;;;;;;;10.32;78.82;97790.91;5073727;28;20202;-73
2023/03/19 00:11:40;;;;;;;5.30;2.17;;;;;;;10.30;78.71;97795.59;5073594;28;20207;-73
2023/03/19 00:14:06;;;;;;;5.17;2.47;;;;;;;10.26;80.12;97789.94;5073638;28;20213;-73
2023/03/19 00:16:33;;;;;;;2.97;2.60;;;;;;;10.26;81.69;97795.25;5073377;28;20307;-73
2023/03/19 00:19:00;;;;;;;4.97;2.23;;;;;;;10.24;77.43;97796.50;5073619;28;20551;-73
2023/03/19 00:21:27;;;;;;;4.17;2.53;;;;;;;10.32;77.77;97793.56;5073522;28;20229;-73
2023/03/19 00:23:56;;;;;;;4.53;2.50;;;;;;;10.43;75.72;97790.94;5073477;28;20237;-73
2023/03/19 00:26:22;;;;;;;6.03;2.60;;;;;;;10.65;74.68;97793.94;5073191;28;20217;-73
2023/03/19 00:28:49;;;;;;;4.93;2.60;;;;;;;10.45;77.87;97801.38;5073135;28;20664;-73
2023/03/19 00:31:16;;;;;;;3.60;2.53;;;;;;;10.30;78.13;97798.25;5073415;28;20202;-73
2023/03/19 00:33:43;;;;;;;6.47;2.50;;;;;;;10.31;77.45;97794.56;5073043;28;20235;-73
2023/03/19 00:36:11;;;;;;;5.07;2.93;;;;;;;10.21;78.18;97792.44;5073437;28;20207;-73
2023/03/19 00:38:38;;;;;;;5.87;2.47;;;;;;;10.18;77.91;97795.53;5074217;28;20205;-73
2023/03/19 00:41:06;;;;;;;4.50;2.57;;;;;;;10.05;81.46;97794.91;5073928;28;20224;-73
2023/03/19 00:43:32;;;;;;;3.10;2.33;;;;;;;10.01;81.31;97791.03;5077451;28;20224;-73
2023/03/19 00:46:00;;;;;;;2.83;2.43;;;;;;;9.98;82.21;97802.06;5077185;28;20669;-73
2023/03/19 00:48:27;;;;;;;3.73;2.53;;;;;;;10.01;82.20;97806.97;5077936;28;20201;-73
2023/03/19 00:50:53;;;;;;;3.67;2.70;;;;;;;10.01;82.44;97809.63;5076957;28;20230;-73
2023/03/19 00:53:20;;;;;;;4.40;2.10;;;;;;;10.00;81.64;97806.13;5077094;28;20227;-73
2023/03/19 00:55:46;;;;;;;4.23;2.30;;;;;;;10.03;81.76;97808.34;5076808;28;20235;-73
2023/03/19 00:58:14;;;;;;;4.53;2.40;;;;;;;9.99;82.64;97807.19;5076738;28;20208;-73
2023/03/19 01:00:40;;;;;;;5.80;2.30;;;;;;;10.01;84.29;97806.97;5077066;28;20664;-73
2023/03/19 01:03:07;;;;;;;3.77;2.60;;;;;;;10.06;84.19;97796.50;5076666;28;20691;-73
2023/03/19 01:05:36;;;;;;;4.43;2.90;;;;;;;10.08;84.89;97794.44;5077031;28;20208;-73
2023/03/19 01:08:03;;;;;;;5.33;3.43;;;;;;;10.11;84.62;97794.00;5076710;28;20675;-73
2023/03/19 01:10:29;;;;;;;5.73;3.83;;;;;;;10.13;85.32;97802.53;5076893;28;20300;-73
2023/03/19 01:12:56;;;;;;;10.53;3.17;;;;;;;10.14;84.85;97804.97;5077019;28;20216;-73
2023/03/19 01:15:22;;;;;;;3.70;2.93;;;;;;;10.09;85.29;97812.81;5076776;28;20205;-73
2023/03/19 01:17:49;;;;;;;6.67;3.70;;;;;;;10.13;84.32;97814.00;5076399;28;20219;-73
2023/03/19 01:20:17;;;;;;;6.97;2.97;;;;;;;10.19;82.98;97817.63;5076763;28;20258;-73
2023/03/19 01:22:45;;;;;;;6.17;3.30;;;;;;;10.19;82.67;97820.28;5076481;28;20233;-73
2023/03/19 01:25:13;;;;;;;8.37;3.90;;;;;;;10.23;82.44;97816.13;5076681;28;20215;-73
2023/03/19 01:27:40;;;;;;;7.93;4.60;;;;;;;10.30;83.02;97820.34;5076459;28;20222;-73
2023/03/19 01:30:08;;;;;;;6.23;4.00;;;;;;;10.30;84.25;97819.50;5076183;28;20224;-73
2023/03/19 01:32:34;;;;;;;8.10;4.30;;;;;;;10.24;85.65;97828.38;5076483;28;20277;-73
2023/03/19 01:35:00;;;;;;;8.30;4.67;;;;;;;10.30;85.41;97822.16;5076474;28;20208;-73
2023/03/19 01:37:28;;;;;;;6.83;4.63;;;;;;;10.29;86.45;97824.03;5076483;28;20295;-73
2023/03/19 01:39:54;;;;;;;6.37;4.73;;;;;;;10.50;84.98;97825.41;5076319;28;20283;-73
2023/03/19 01:42:21;;;;;;;6.80;5.03;;;;;;;10.39;87.16;97831.47;5076192;28;20261;-73
2023/03/19 01:44:48;;;;;;;7.03;4.50;;;;;;;10.35;87.02;97835.59;5075863;28;20210;-73
2023/03/19 01:47:19;;;;;;;8.33;5.27;;;;;;;10.36;88.18;97845.22;5076416;28;20244;-73
2023/03/19 01:49:53;;;;;;;7.47;4.90;;;;;;;10.35;86.64;97843.56;5076807;28;20192;-73
2023/03/19 01:52:21;;;;;;;8.50;4.90;;;;;;;10.28;87.68;97846.31;5074595;28;20592;-73
2023/03/19 01:54:48;;;;;;;8.47;4.90;;;;;;;10.23;87.77;97853.34;5075675;28;20223;-73
2023/03/19 01:57:16;;;;;;;5.33;3.77;;;;;;;10.59;80.42;97848.00;5076143;28;20211;-73
2023/03/19 01:59:52;;;;;;;4.97;3.40;;;;;;;10.72;77.29;97861.09;5075763;28;20703;-73
2023/03/19 02:02:25;;;;;;;2.50;2.20;;;;;;;11.06;71.75;97865.75;5075894;28;20236;-73
2023/03/19 02:04:58;;;;;;;3.80;2.20;;;;;;;10.99;71.82;97865.84;5076006;28;20189;-73
2023/03/19 02:07:25;;;;;;;3.93;2.10;;;;;;;11.23;69.52;97861.44;5076531;28;20190;-73
2023/03/19 02:09:52;;;;;;;2.63;1.90;;;;;;;11.27;68.81;97867.91;5074716;28;20308;-73
2023/03/19 02:12:18;;;;;;;3.20;2.00;;;;;;;11.24;69.04;97863.03;5074503;28;20224;-73
2023/03/19 02:14:45;;;;;;;3.30;1.90;;;;;;;11.28;69.57;97865.00;5075843;28;20204;-73
2023/03/19 02:17:11;;;;;;;3.07;2.00;;;;;;;11.28;71.39;97861.56;5075492;28;20697;-73
2023/03/19 02:19:57;;;;;;;3.00;1.70;;;;;;;11.29;70.94;97865.81;5075737;28;20206;-73
2023/03/19 02:22:27;;;;;;;3.47;1.83;;;;;;;11.22;72.04;97867.78;5075291;28;20693;-73
2023/03/19 02:24:57;;;;;;;3.30;2.13;;;;;;;11.18;74.20;97864.75;5075553;28;20575;-73
2023/03/19 02:27:23;;;;;;;2.47;1.80;;;;;;;11.20;84.10;97869.84;5075426;28;20557;-73
2023/03/19 02:29:50;;;;;;;2.73;2.10;;;;;;;11.03;98.18;97868.88;5075333;28;20212;-72
2023/03/19 02:32:16;;;;;;;3.10;1.70;;;;;;;10.95;100.00;97879.84;5075407;28;20217;-72
2023/03/19 02:34:43;;;;;;;1.87;1.77;;;;;;;10.84;100.00;97876.09;5074959;28;20216;-72
2023/03/19 02:37:42;;;;;;;3.47;1.73;;;;;;;10.77;100.00;97875.34;5075612;28;20212;-72
2023/03/19 02:40:14;;;;;;;1.87;1.73;;;;;;;10.70;100.00;97865.84;5052537;28;20572;-72
2023/03/19 02:42:40;;;;;;;1.80;1.70;;;;;;;10.74;100.00;97864.34;5073646;28;20226;-73
2023/03/19 02:45:07;;;;;;;2.53;1.93;;;;;;;10.58;100.00;97856.97;5075129;28;20205;-73
2023/03/19 02:47:34;;;;;;;2.03;1.83;;;;;;;10.56;100.00;97846.59;5075169;28;20200;-73
2023/03/19 02:50:00;;;;;;;3.87;2.00;;;;;;;10.33;100.00;97849.09;5075180;28;20205;-73
2023/03/19 02:52:26;;;;;;;2.77;2.10;;;;;;;10.25;100.00;97849.41;5075503;28;20217;-73
2023/03/19 02:54:53;;;;;;;3.07;2.27;;;;;;;10.19;100.00;97852.16;5075030;28;20216;-73
2023/03/19 02:57:19;;;;;;;2.60;2.40;;;;;;;10.09;100.00;97857.97;5074983;28;20212;-73
2023/03/19 02:59:46;;;;;;;3.33;2.30;;;;;;;10.27;100.00;97862.50;5074907;28;20558;-72
2023/03/19 03:02:12;;;;;;;3.13;2.63;;;;;;;10.20;100.00;97857.25;5074738;28;20586;-72
2023/03/19 03:04:39;;;;;;;2.90;2.40;;;;;;;10.15;100.00;97862.41;5073773;28;20204;-72
2023/03/19 03:07:06;;;;;;;3.10;2.63;;;;;;;10.10;100.00;97867.53;5074464;28;20569;-72
2023/03/19 03:09:32;;;;;;;3.13;2.33;;;;;;;10.08;100.00;97863.50;5074988;28;20212;-72
2023/03/19 03:11:59;;;;;;;2.57;2.03;;;;;;;10.07;100.00;97872.50;5074658;28;20220;-73
2023/03/19 03:14:25;;;;;;;4.30;2.50;;;;;;;10.01;100.00;97865.38;5074613;28;20201;-73
2023/03/19 03:16:52;;;;;;;2.53;2.30;;;;;;;9.98;100.00;97863.16;5074275;28;20224;-72
2023/03/19 03:19:19;;;;;;;3.57;2.77;;;;;;;9.90;100.00;97871.41;5074469;28;20201;-72
2023/03/19 03:21:45;;;;;;;4.73;2.40;;;;;;;9.91;100.00;97863.22;5073948;28;20224;-73
2023/03/19 03:24:11;;;;;;;4.00;2.37;;;;;;;9.94;100.00;97872.59;5074435;28;20200;-72
2023/03/19 03:26:38;;;;;;;2.63;2.43;;;;;;;9.91;100.00;97865.09;5074355;28;20205;-72
2023/03/19 03:29:06;;;;;;;2.50;2.30;;;;;;;9.88;100.00;97871.66;5074040;28;20200;-73
2023/03/19 03:31:33;;;;;;;3.47;2.90;;;;;;;9.87;100.00;97877.16;5074225;28;20205;-72
2023/03/19 03:34:00;;;;;;;2.73;2.30;;;;;;;9.83;100.00;97875.97;5074071;28;20274;-72
2023/03/19 03:36:27;;;;;;;3.93;2.63;;;;;;;9.81;100.00;97864.75;5074197;28;20247;-72
2023/03/19 03:38:54;;;;;;;3.70;2.97;;;;;;;9.76;100.00;97872.56;5074097;28;20201;-72
2023/03/19 03:41:21;;;;;;;3.23;2.83;;;;;;;9.78;100.00;97873.97;5073867;28;20216;-72
2023/03/19 03:43:47;;;;;;;4.47;2.60;;;;;;;9.75;100.00;97874.41;5073849;28;20311;-72
2023/03/19 03:46:14;;;;;;;4.13;2.60;;;;;;;9.77;100.00;97876.84;5073886;28;20207;-72
2023/03/19 03:48:40;;;;;;;3.10;2.77;;;;;;;9.76;100.00;97878.69;5073752;28;20204;-72
2023/03/19 03:51:06;;;;;;;4.03;2.83;;;;;;;9.78;100.00;97881.13;5073769;28;20215;-72
2023/03/19 03:53:33;;;;;;;3.93;3.20;;;;;;;9.75;100.00;97884.22;5073659;28;20224;-73
2023/03/19 03:55:59;;;;;;;4.07;3.10;;;;;;;9.75;100.00;97893.00;5073724;28;20208;-72
2023/03/19 03:58:25;;;;;;;3.70;3.10;;;;;;;9.76;100.00;97885.84;5073925;28;20200;-73
2023/03/19 04:00:53;;;;;;;3.83;3.00;;;;;;;9.77;100.00;97890.13;5073681;28;20212;-72
2023/03/19 04:03:20;;;;;;;6.37;3.67;;;;;;;9.72;100.00;97892.59;5073294;28;20232;-72
2023/03/19 04:05:47;;;;;;;7.67;5.47;;;;;;;9.73;100.00;97886.28;5073514;28;20254;-72
2023/03/19 04:08:14;;;;;;;4.53;4.10;;;;;;;9.68;100.00;97888.78;5073470;28;20231;-72
2023/03/19 04:10:42;;;;;;;4.90;3.53;;;;;;;9.80;100.00;97890.50;5073738;28;20208;-72
2023/03/19 04:13:09;;;;;;;5.03;4.00;;;;;;;9.75;100.00;97894.81;5072806;28;20703;-73
2023/03/19 04:15:36;;;;;;;5.17;4.00;;;;;;;9.77;100.00;97898.09;5072469;28;20617;-72
2023/03/19 04:18:03;;;;;;;3.63;3.33;;;;;;;9.79;100.00;97894.19;5073104;28;20234;-72
2023/03/19 04:20:30;;;;;;;5.20;3.57;;;;;;;9.83;100.00;97899.88;5072915;28;20204;-72
2023/03/19 04:22:56;;;;;;;4.67;3.47;;;;;;;9.79;100.00;97901.34;5073129;28;20220;-72
2023/03/19 04:25:22;;;;;;;3.67;3.27;;;;;;;9.80;100.00;97897.66;5073063;28;20212;-72
2023/03/19 04:27:49;;;;;;;6.40;3.80;;;;;;;9.85;100.00;97908.41;5073096;28;20205;-72
2023/03/19 04:30:15;;;;;;;4.50;3.60;;;;;;;9.83;100.00;97910.50;5073236;28;20299;-72
2023/03/19 04:32:43;;;;;;;4.20;3.80;;;;;;;9.83;100.00;97899.88;5073459;28;20221;-72
2023/03/19 04:35:10;;;;;;;4.37;3.33;;;;;;;9.86;100.00;97902.91;5073066;28;20641;-72
2023/03/19 04:37:36;;;;;;;4.90;3.80;;;;;;;9.84;100.00;97906.81;5073311;28;20205;-72
2023/03/19 04:40:03;;;;;;;5.27;3.90;;;;;;;9.78;100.00;97905.03;5073451;28;20213;-72
2023/03/19 04:42:29;;;;;;;6.83;4.27;;;;;;;9.77;100.00;97914.03;5073011;28;20232;-72
2023/03/19 04:44:56;;;;;;;5.47;3.90;;;;;;;9.73;100.00;97920.78;5073072;28;20200;-72
2023/03/19 04:47:22;;;;;;;4.67;3.93;;;;;;;9.70;100.00;97922.03;5073030;28;20205;-72
2023/03/19 04:49:48;;;;;;;4.53;4.13;;;;;;;9.70;100.00;97916.72;5072988;28;20212;-72
2023/03/19 04:52:15;;;;;;;6.13;4.20;;;;;;;9.73;100.00;97910.19;5072537;28;20223;-72
2023/03/19 04:54:41;;;;;;;5.93;3.67;;;;;;;9.71;100.00;97922.84;5072679;28;20667;-72
2023/03/19 04:57:07;;;;;;;5.47;4.10;;;;;;;9.75;100.00;97916.91;5072774;28;20678;-72
2023/03/19 04:59:34;;;;;;;4.67;3.80;;;;;;;9.61;100.00;97920.69;5072717;28;20212;-72
2023/03/19 05:02:00;;;;;;;4.97;4.13;;;;;;;9.61;100.00;97917.19;5072364;28;20240;-72
2023/03/19 05:04:26;;;;;;;8.43;4.50;;;;;;;9.58;100.00;97930.91;5072671;28;20208;-72
2023/03/19 05:06:53;;;;;;;6.37;4.57;;;;;;;9.60;100.00;97936.81;5073056;28;20614;-72
2023/03/19 05:09:20;;;;;;;5.43;4.47;;;;;;;9.82;100.00;97938.06;5072793;28;20254;-72
2023/03/19 05:11:46;;;;;;;6.50;4.17;;;;;;;9.54;100.00;97941.13;5073090;28;20295;-72
2023/03/19 05:14:13;;;;;;;6.63;4.50;;;;;;;9.55;100.00;97939.31;5073223;28;20299;-72
2023/03/19 05:16:39;;;;;;;7.63;4.57;;;;;;;9.49;100.00;97940.16;5072457;28;20214;-72
2023/03/19 05:19:05;;;;;;;4.73;4.03;;;;;;;9.46;100.00;97941.38;5072930;28;20218;-72
2023/03/19 05:21:32;;;;;;;4.43;3.70;;;;;;;9.55;100.00;97940.09;5072443;28;20204;-72
2023/03/19 05:23:59;;;;;;;6.30;4.47;;;;;;;9.54;100.00;97937.66;5072445;28;20232;-72
2023/03/19 05:26:25;;;;;;;4.73;4.20;;;;;;;9.52;100.00;97943.19;5072501;28;20215;-72
2023/03/19 05:28:51;;;;;;;5.60;4.33;;;;;;;9.54;100.00;97942.97;5074508;28;20200;-72
2023/03/19 05:31:18;;;;;;;5.60;4.40;;;;;;;9.50;100.00;97947.91;5076383;28;20207;-72
2023/03/19 05:33:44;;;;;;;5.17;3.40;;;;;;;9.50;100.00;97939.94;5076188;28;20229;-72
2023/03/19 05:36:11;;;;;;;4.37;3.70;;;;;;;9.58;100.00;97941.50;5076781;28;20208;-72
2023/03/19 05:38:38;;;;;;;6.03;4.03;;;;;;;9.54;100.00;97945.63;5076034;28;20200;-72
2023/03/19 05:41:05;;;;;;;5.47;3.90;;;;;;;9.57;100.00;97953.16;5075838;28;20243;-73
2023/03/19 05:43:32;;;;;;;6.67;3.90;;;;;;;9.53;100.00;97949.31;5075714;28;20601;-73
2023/03/19 05:45:58;;;;;;;6.13;4.40;;;;;;;9.46;100.00;97948.56;5076022;28;20204;-73
2023/03/19 05:48:26;;;;;;;4.50;3.97;;;;;;;9.44;100.00;97948.75;5075806;28;20201;-72
2023/03/19 05:50:52;;;;;;;6.23;4.30;;;;;;;9.42;100.00;97948.16;5075383;28;20280;-73
2023/03/19 05:53:20;;;;;;;4.87;4.43;;;;;;;9.42;100.00;97952.66;5075813;28;20225;-73
2023/03/19 05:55:46;;;;;;;5.53;4.17;;;;;;;9.41;100.00;97948.38;5076272;28;20218;-72
2023/03/19 05:58:13;;;;;;;7.27;4.73;;;;;;;9.51;100.00;97951.38;5076075;28;20207;-73
2023/03/19 06:00:39;;;;;;;4.53;4.10;;;;;;;9.42;100.00;97956.09;5076172;28;20204;-72
2023/03/19 06:03:06;;;;;;;5.00;3.77;;;;;;;9.43;100.00;97963.06;5076051;28;20232;-72
2023/03/19 06:05:32;;;;;;;6.53;4.00;;;;;;;9.45;100.00;97965.47;5075887;28;20258;-72
2023/03/19 06:07:58;;;;;;;6.03;4.27;;;;;;;9.60;100.00;97968.66;5075943;28;20204;-72
2023/03/19 06:10:25;;;;;;;5.40;4.23;;;;;;;9.48;100.00;97962.41;5075358;28;20209;-72
2023/03/19 06:12:52;;;;;;;6.07;4.30;;;;;;;9.44;100.00;97972.66;5075573;28;20695;-73
2023/03/19 06:15:18;;;;;;;7.17;4.70;;;;;;;9.45;100.00;97965.47;5075522;28;20212;-73
2023/03/19 06:17:45;;;;;;;6.47;4.27;;;;;;;9.50;100.00;97973.63;5075285;28;20221;-73
2023/03/19 06:20:12;;;;;;;6.13;3.80;;;;;;;9.51;100.00;97975.25;5075412;28;20211;-73
2023/03/19 06:22:38;;;;;;;6.20;3.97;;;;;;;9.55;100.00;97974.59;5075269;28;20224;-73
2023/03/19 06:25:05;;;;;;;4.53;3.90;;;;;;;9.59;100.00;97975.00;5075371;28;20216;-73
2023/03/19 06:27:31;;;;;;;6.07;3.70;;;;;;;9.64;100.00;97977.84;5075165;28;20288;-73
2023/03/19 06:29:58;;;;;;;4.57;3.90;;;;;;;9.67;100.00;97972.06;5075582;28;20208;-73
2023/03/19 06:32:24;;;;;;;5.13;3.60;;;;;;;9.68;100.00;97973.72;5075401;28;20224;-73
2023/03/19 06:34:50;;;;;;;6.60;3.77;;;;;;;9.67;100.00;97975.56;5075189;28;20207;-73
2023/03/19 06:37:17;;;;;;;6.23;3.80;;;;;;;9.71;100.00;97976.75;5075435;28;20208;-73
2023/03/19 06:39:44;;;;;;;5.17;3.10;;;;;;;9.77;100.00;97983.84;5074653;28;20239;-73
2023/03/19 06:42:10;;;;;;;5.17;3.40;;;;;;;9.78;100.00;97982.81;5075076;28;20231;-73
2023/03/19 06:44:37;;;;;;;7.27;3.87;;;;;;;9.79;100.00;97981.81;5075005;28;20239;-73
2023/03/19 06:47:05;;;;;;;5.37;3.23;;;;;;;9.87;100.00;97978.84;5074989;28;20250;-73
2023/03/19 06:49:32;;;;;;;4.20;3.80;;;;;;;9.88;100.00;97974.38;5075015;28;20212;-73
2023/03/19 06:51:58;;;;;;;8.03;3.83;;;;;;;9.86;100.00;97979.91;5075452;28;20224;-73
2023/03/19 06:54:24;;;;;;;5.67;3.90;;;;;;;9.93;100.00;97977.19;5075104;28;20209;-73
2023/03/19 06:56:51;;;;;;;5.27;3.70;;;;;;;9.90;100.00;97978.44;5074463;28;20211;-73
2023/03/19 06:59:17;;;;;;;6.13;3.70;;;;;;;9.91;100.00;97981.91;5074889;28;20222;-73
2023/03/19 07:01:45;;;;;;;6.90;4.20;;;;;;;9.99;100.00;97981.63;5074592;28;20205;-73
2023/03/19 07:04:12;;;;;;;5.00;3.47;;;;;;;10.00;100.00;97986.72;5074517;28;20247;-73
2023/03/19 07:06:38;;;;;;;6.77;3.87;;;;;;;10.14;100.00;97988.28;5074565;28;20216;-73
2023/03/19 07:09:05;;;;;;;4.73;3.57;;;;;;;10.20;100.00;97984.75;5074256;28;20211;-73
2023/03/19 07:11:31;;;;;;;6.67;3.30;;;;;;;10.32;100.00;97987.53;5071063;28;20215;-73
2023/03/19 07:13:58;;;;;;;4.97;3.30;;;;;;;10.39;100.00;97988.25;5062701;28;20228;-73
2023/03/19 07:16:24;;;;;;;4.67;3.17;;;;;;;10.41;100.00;97986.22;5075094;28;20295;-73
2023/03/19 07:18:50;;;;;;;4.67;2.90;;;;;;;10.49;100.00;97988.56;5072436;28;20686;-73
2023/03/19 07:21:17;;;;;;;4.03;2.90;;;;;;;10.60;100.00;97990.50;5072368;28;20567;-73
2023/03/19 07:23:45;;;;;;;5.73;2.93;;;;;;;10.71;100.00;97995.91;5074131;28;20346;-73
2023/03/19 07:26:12;;;;;;;3.27;2.30;;;;;;;10.63;100.00;97990.88;5071498;28;20656;-73
2023/03/19 07:28:39;;;;;;;3.83;1.93;;;;;;;10.86;100.00;97995.53;5074046;28;20235;-73
2023/03/19 07:31:05;;;;;;;3.73;2.30;;;;;;;10.81;100.00;97998.03;5072213;28;20204;-73
2023/03/19 07:33:32;;;;;;;4.20;2.50;;;;;;;10.93;100.00;97997.09;5073927;28;20253;-73
2023/03/19 07:35:58;;;;;;;4.63;2.40;;;;;;;11.14;100.00;97993.16;5072380;28;20210;-73
2023/03/19 07:38:25;;;;;;;3.93;2.53;;;;;;;11.22;100.00;97998.19;5074022;28;20205;-73
2023/03/19 07:40:51;;;;;;;3.63;2.13;;;;;;;11.26;100.00;98003.84;5071970;28;20229;-73
2023/03/19 07:43:17;;;;;;;2.77;2.00;;;;;;;11.46;100.00;98004.41;5073287;28;20235;-73
2023/03/19 07:45:44;;;;;;;3.37;2.10;;;;;;;11.32;100.00;98004.56;5071498;28;20219;-73
2023/03/19 07:48:11;;;;;;;3.57;2.10;;;;;;;11.23;100.00;98009.63;5058684;28;20349;-73
2023/03/19 07:50:38;;;;;;;2.10;1.90;;;;;;;11.16;100.00;98017.69;5060261;28;20250;-74
2023/03/19 07:53:04;;;;;;;2.43;1.80;;;;;;;11.25;100.00;98015.53;5073853;28;20261;-74
2023/03/19 07:55:30;;;;;;;4.43;2.20;;;;;;;11.26;100.00;98015.28;5072023;28;20216;-74
2023/03/19 07:57:57;;;;;;;3.57;1.80;;;;;;;11.33;100.00;98013.38;5072602;28;20206;-74
2023/03/19 08:00:23;;;;;;;2.60;2.00;;;;;;;11.37;100.00;98008.41;5072278;28;20199;-74
2023/03/19 08:02:50;;;;;;;3.67;2.20;;;;;;;11.40;100.00;98014.09;5073459;28;20230;-74
2023/03/19 08:05:16;;;;;;;3.20;2.00;;;;;;;11.43;100.00;98016.31;5071709;28;20306;-74
2023/03/19 08:07:43;;;;;;;4.13;2.13;;;;;;;11.55;100.00;98011.84;5071643;28;20287;-74
2023/03/19 08:10:10;;;;;;;3.03;2.10;;;;;;;11.58;100.00;98013.25;5071250;28;20594;-74
2023/03/19 08:12:39;;;;;;;3.00;2.43;;;;;;;11.59;100.00;98013.03;5073007;28;20227;-74
2023/03/19 08:15:08;;;;;;;4.80;2.30;;;;;;;11.63;100.00;98013.41;5071551;28;20206;-74
2023/03/19 08:17:37;;;;;;;4.47;2.90;;;;;;;11.60;100.00;98012.03;5071299;28;20654;-74
2023/03/19 08:20:09;;;;;;;5.33;3.30;;;;;;;11.52;100.00;98020.28;5073387;28;20305;-74
2023/03/19 08:22:37;;;;;;;3.73;3.20;;;;;;;11.52;100.00;98008.84;5071870;28;20335;-74
2023/03/19 08:25:05;;;;;;;4.57;3.20;;;;;;;11.43;100.00;98013.66;5073304;28;20231;-74
2023/03/19 08:27:34;;;;;;;4.77;3.20;;;;;;;11.43;100.00;98013.66;5064705;28;20209;-74
2023/03/19 08:30:02;;;;;;;4.43;3.27;;;;;;;11.35;100.00;98011.28;5053050;28;20208;-74
2023/03/19 08:32:29;;;;;;;4.40;3.50;;;;;;;11.37;100.00;98009.22;5077790;22;20224;-74
2023/03/19 08:34:56;;;;;;;4.60;3.47;;;;;;;11.42;100.00;98004.03;5071181;28;20187;-74
2023/03/19 08:37:22;;;;;;;5.37;3.50;;;;;;;11.48;100.00;98016.44;5070023;28;20210;-74
2023/03/19 08:39:52;;;;;;;3.90;3.50;;;;;;;11.54;100.00;98018.22;5071864;28;20218;-74
2023/03/19 08:42:20;;;;;;;5.37;3.90;;;;;;;11.65;100.00;98016.66;5071794;28;20307;-74
2023/03/19 08:44:46;;;;;;;5.73;3.83;;;;;;;11.68;100.00;98016.22;5073621;28;20310;-74
2023/03/19 08:47:13;;;;;;;3.77;3.30;;;;;;;11.84;100.00;98023.56;5072371;28;20207;-74
2023/03/19 08:49:39;;;;;;;5.80;3.77;;;;;;;11.78;100.00;98019.94;5072972;28;20680;-74
2023/03/19 08:52:06;;;;;;;5.60;3.27;;;;;;;11.87;100.00;98018.59;5071807;28;20239;-75
2023/03/19 08:54:33;;;;;;;4.57;3.70;;;;;;;11.89;100.00;98023.69;5073403;28;20208;-74
2023/03/19 08:57:00;;;;;;;4.23;3.60;;;;;;;11.97;100.00;98032.16;5071479;28;20208;-74
2023/03/19 08:59:27;;;;;;;5.57;3.70;;;;;;;12.03;100.00;98033.91;5073047;28;20269;-74
2023/03/19 09:01:54;;;;;;;5.37;3.73;;;;;;;12.11;100.00;98033.56;5071668;28;20545;-74
2023/03/19 09:04:21;;;;;;;4.43;3.50;;;;;;;12.19;100.00;98043.09;5074497;28;20223;-75
2023/03/19 09:06:50;;;;;;;5.73;3.57;;;;;;;12.25;100.00;98036.88;5076578;28;20208;-75
2023/03/19 09:09:18;;;;;;;3.97;3.30;;;;;;;12.15;100.00;98042.75;5076332;28;20242;-74
2023/03/19 09:11:45;;;;;;;4.73;3.23;;;;;;;12.21;100.00;98039.16;5076514;28;20222;-74
2023/03/19 09:14:12;;;;;;;3.77;3.40;;;;;;;12.60;100.00;98041.16;5074188;28;20215;-72
2023/03/19 09:16:40;;;;;;;4.67;3.63;;;;;;;13.04;100.00;98040.59;5076868;28;20215;-72
2023/03/19 09:19:06;;;;;;;7.00;4.20;;;;;;;12.89;100.00;98040.22;5075147;28;20204;-72
2023/03/19 09:21:33;;;;;;;3.97;3.57;;;;;;;13.22;99.94;98027.09;5076352;28;20214;-72
2023/03/19 09:23:59;;;;;;;3.10;2.77;;;;;;;13.37;98.54;98040.75;5073970;28;20236;-72
2023/03/19 09:26:26;;;;;;;5.30;3.50;;;;;;;13.47;97.85;98030.25;5076077;28;20207;-72
2023/03/19 09:28:52;;;;;;;6.63;3.93;;;;;;;13.62;99.68;98027.88;5074783;28;20215;-72
2023/03/19 09:31:18;;;;;;;4.43;2.60;;;;;;;14.00;90.55;98038.75;5076673;28;20205;-72
2023/03/19 09:33:45;;;;;;;6.80;2.87;;;;;;;13.78;89.28;98042.31;5073848;28;20243;-73
2023/03/19 09:36:12;;;;;;;4.43;2.63;;;;;;;13.77;85.35;98036.19;5076657;28;20211;-72
2023/03/19 09:38:39;;;;;;;5.00;2.40;;;;;;;13.83;87.53;98032.56;5074964;28;20613;-73
2023/03/19 09:41:36;;;;;;;3.03;2.70;;;;;;;14.12;86.89;98028.81;5075788;28;20277;-73
2023/03/19 09:44:13;;;;;;;3.93;3.20;;;;;;;13.72;92.13;98028.09;5074076;28;20228;-73
2023/03/19 09:46:57;;;;;;;3.57;3.27;;;;;;;13.68;93.71;98020.78;5075738;28;20200;-73
2023/03/19 09:49:33;;;;;;;3.57;2.87;;;;;;;13.71;89.72;98036.34;5074914;28;20716;-73
2023/03/19 09:52:23;;;;;;;3.03;2.77;;;;;;;13.89;88.71;98028.13;5075437;28;20224;-73
2023/03/19 09:54:52;;;;;;;3.50;3.00;;;;;;;13.87;88.28;98030.19;5055136;28;20192;-73
2023/03/19 09:57:19;;;;;;;4.13;2.77;;;;;;;13.77;88.21;98027.34;5057004;28;20205;-73
2023/03/19 09:59:47;;;;;;;4.67;2.60;;;;;;;14.02;83.26;98023.25;5073832;28;20262;-73
2023/03/19 10:02:42;;;;;;;3.00;2.50;;;;;;;14.23;86.42;98025.28;5056990;28;20231;-73
2023/03/19 10:05:15;;;;;;;3.63;2.93;;;;;;;13.96;92.43;98023.41;5075202;28;20754;-74
2023/03/19 10:08:09;;;;;;;4.60;3.00;;;;;;;14.35;84.91;98023.34;5074011;28;20212;-73
2023/03/19 10:10:49;;;;;;;6.60;3.10;;;;;;;14.68;82.50;98023.31;5075661;28;20212;-73
2023/03/19 10:13:57;;;;;;;2.80;2.20;;;;;;;14.92;80.11;98019.34;5056754;28;20250;-73
2023/03/19 10:16:27;;;;;;;5.90;2.70;;;;;;;14.97;78.94;98015.97;5059683;28;20188;-73
2023/03/19 10:18:57;;;;;;;2.77;2.10;;;;;;;15.24;74.41;98006.13;5074225;28;20208;-73
2023/03/19 10:21:44;;;;;;;4.33;2.53;;;;;;;15.28;73.81;98005.38;5075390;28;20195;-73
2023/03/19 10:24:22;;;;;;;4.83;2.20;;;;;;;15.44;73.98;98003.72;5073778;28;20216;-73
2023/03/19 10:26:55;;;;;;;3.27;2.20;;;;;;;15.39;75.77;98001.78;5075013;28;20204;-74
2023/03/19 10:29:24;;;;;;;1.83;1.63;;;;;;;15.42;69.13;98008.53;5074296;28;20201;-73
2023/03/19 10:32:17;;;;;;;3.20;1.70;;;;;;;15.45;70.61;97998.09;5074482;28;20668;-74
2023/03/19 10:34:49;;;;;;;2.93;1.90;;;;;;;15.48;66.29;98000.28;5073605;28;20651;-74
2023/03/19 10:37:26;;;;;;;2.30;1.67;;;;;;;15.62;66.37;97990.81;5075048;28;20200;-73
2023/03/19 10:39:57;;;;;;;1.93;1.50;;;;;;;15.86;64.83;97989.41;5069293;28;20193;-73
2023/03/19 10:42:47;;;;;;;1.93;1.30;;;;;;;15.76;63.72;97989.34;5055135;28;20221;-73
2023/03/19 10:45:33;;;;;;;2.33;1.50;;;;;;;15.52;63.97;97985.31;5072964;28;20248;-73
2023/03/19 10:48:01;;;;;;;2.23;1.47;;;;;;;15.58;65.26;97987.00;5074343;28;20625;-74
2023/03/19 10:50:32;;;;;;;2.60;1.40;;;;;;;15.64;62.37;97983.31;5073334;28;20205;-74
2023/03/19 10:53:04;;;;;;;3.70;1.60;;;;;;;15.69;64.66;97982.56;5074780;28;20231;-73
2023/03/19 10:55:31;;;;;;;3.93;1.80;;;;;;;15.76;64.84;97977.78;5073856;28;20218;-74
2023/03/19 10:58:14;;;;;;;2.67;1.50;;;;;;;15.77;62.22;97979.41;5074826;28;20209;-73
2023/03/19 11:00:41;;;;;;;1.90;1.40;;;;;;;15.88;58.54;97975.78;5073419;28;20635;-73
2023/03/19 11:03:37;;;;;;;2.43;1.70;;;;;;;15.95;56.47;97973.66;5074149;28;20220;-73
2023/03/19 11:06:13;;;;;;;1.50;1.30;;;;;;;15.93;55.18;97975.81;5054111;28;20186;-73
2023/03/19 11:08:40;;;;;;;2.00;1.40;;;;;;;16.10;57.08;97976.50;5056329;28;20208;-73
2023/03/19 11:11:06;;;;;;;3.83;1.80;;;;;;;15.98;56.05;97971.31;5073853;28;20687;-73
2023/03/19 11:13:35;;;;;;;3.60;1.47;;;;;;;16.17;56.88;97967.19;5071443;28;20229;-73
2023/03/19 11:16:04;;;;;;;2.87;1.47;;;;;;;16.15;55.82;97971.97;5074728;28;20612;-73
2023/03/19 11:18:38;;;;;;;2.27;1.40;;;;;;;16.23;57.08;97973.38;5072825;28;20220;-73
2023/03/19 11:21:27;;;;;;;4.00;1.80;;;;;;;16.33;57.60;97971.56;5073700;28;20242;-74
2023/03/19 11:24:01;;;;;;;2.63;1.30;;;;;;;16.43;56.29;97966.34;5055641;28;20236;-74
2023/03/19 11:26:28;;;;;;;3.90;1.67;;;;;;;16.48;56.58;97968.22;5073332;28;20192;-73
2023/03/19 11:29:01;;;;;;;3.17;1.53;;;;;;;16.13;56.89;97968.75;5072757;28;20210;-74
2023/03/19 11:31:39;;;;;;;1.93;1.50;;;;;;;16.21;57.06;97962.91;5073499;28;20184;-73
2023/03/19 11:34:17;;;;;;;3.63;1.93;;;;;;;15.93;55.00;97955.16;5072230;28;20208;-73
2023/03/19 11:37:11;;;;;;;3.50;1.80;;;;;;;16.11;56.71;97962.81;5055937;28;20193;-73
2023/03/19 11:40:06;;;;;;;3.07;1.40;;;;;;;16.51;56.39;97960.47;5058020;28;20750;-73